sensor_id;sensor_type;location;lat;lon;timestamp;temperature;humidity
6672;DHT22;3372;48.690;12.362;2023-07-16T00:00:11;26.00;24.80
6672;DHT22;3372;48.690;12.362;2023-07-16T00:02:38;25.80;26.00
6672;DHT22;3372;48.690;12.362;2023-07-16T00:05:04;25.80;25.80
6672;DHT22;3372;48.690;12.362;2023-07-16T00:07:29;25.70;26.00
6672;DHT22;3372;48.690;12.362;2023-07-16T00:09:55;25.80;26.00
6672;DHT22;3372;48.690;12.362;2023-07-16T00:12:20;25.70;26.10
6672;DHT22;3372;48.690;12.362;2023-07-16T00:14:47;25.70;26.50
6672;DHT22;3372;48.690;12.362;2023-07-16T00:17:13;25.60;27.00
6672;DHT22;3372;48.690;12.362;2023-07-16T00:19:39;25.60;27.00
6672;DHT22;3372;48.690;12.362;2023-07-16T00:22:05;25.60;27.40
6672;DHT22;3372;48.690;12.362;2023-07-16T00:24:30;25.60;27.00
6672;DHT22;3372;48.690;12.362;2023-07-16T00:26:57;25.50;27.50
6672;DHT22;3372;48.690;12.362;2023-07-16T00:29:23;25.40;27.80
6672;DHT22;3372;48.690;12.362;2023-07-16T00:31:48;25.40;27.80
6672;DHT22;3372;48.690;12.362;2023-07-16T00:34:14;25.40;27.30
6672;DHT22;3372;48.690;12.362;2023-07-16T00:36:39;25.40;28.50
6672;DHT22;3372;48.690;12.362;2023-07-16T00:39:05;25.30;28.30
6672;DHT22;3372;48.690;12.362;2023-07-16T00:41:30;25.40;27.20
6672;DHT22;3372;48.690;12.362;2023-07-16T00:43:56;25.40;28.10
6672;DHT22;3372;48.690;12.362;2023-07-16T00:46:22;25.10;29.40
6672;DHT22;3372;48.690;12.362;2023-07-16T00:48:47;25.00;31.10
6672;DHT22;3372;48.690;12.362;2023-07-16T00:51:13;24.50;31.90
6672;DHT22;3372;48.690;12.362;2023-07-16T00:53:41;24.70;32.40
6672;DHT22;3372;48.690;12.362;2023-07-16T00:56:08;24.60;34.10
6672;DHT22;3372;48.690;12.362;2023-07-16T00:58:34;24.50;34.80
6672;DHT22;3372;48.690;12.362;2023-07-16T01:00:59;24.40;36.20
6672;DHT22;3372;48.690;12.362;2023-07-16T01:03:25;24.20;38.70
6672;DHT22;3372;48.690;12.362;2023-07-16T01:06:18;24.00;43.60
6672;DHT22;3372;48.690;12.362;2023-07-16T01:08:51;24.10;42.20
6672;DHT22;3372;48.690;12.362;2023-07-16T01:11:19;23.70;43.80
6672;DHT22;3372;48.690;12.362;2023-07-16T01:13:45;23.90;43.60
6672;DHT22;3372;48.690;12.362;2023-07-16T01:16:21;23.90;43.20
6672;DHT22;3372;48.690;12.362;2023-07-16T01:18:47;23.70;45.90
6672;DHT22;3372;48.690;12.362;2023-07-16T01:21:13;24.00;43.40
6672;DHT22;3372;48.690;12.362;2023-07-16T01:29:36;24.30;44.10
6672;DHT22;3372;48.690;12.362;2023-07-16T01:32:03;24.30;42.80
6672;DHT22;3372;48.690;12.362;2023-07-16T01:34:32;24.20;44.00
6672;DHT22;3372;48.690;12.362;2023-07-16T01:37:00;24.10;45.40
6672;DHT22;3372;48.690;12.362;2023-07-16T01:39:26;24.10;47.00
6672;DHT22;3372;48.690;12.362;2023-07-16T01:41:52;24.10;45.40
6672;DHT22;3372;48.690;12.362;2023-07-16T01:44:17;24.10;45.50
6672;DHT22;3372;48.690;12.362;2023-07-16T01:46:43;24.10;47.70
6672;DHT22;3372;48.690;12.362;2023-07-16T01:49:08;24.00;47.00
6672;DHT22;3372;48.690;12.362;2023-07-16T01:51:34;23.90;46.20
6672;DHT22;3372;48.690;12.362;2023-07-16T01:53:59;23.90;48.30
6672;DHT22;3372;48.690;12.362;2023-07-16T01:56:25;23.80;48.80
6672;DHT22;3372;48.690;12.362;2023-07-16T01:58:51;23.90;48.60
6672;DHT22;3372;48.690;12.362;2023-07-16T02:01:16;23.80;48.40
6672;DHT22;3372;48.690;12.362;2023-07-16T02:03:42;23.80;49.70
6672;DHT22;3372;48.690;12.362;2023-07-16T02:06:07;23.60;49.10
6672;DHT22;3372;48.690;12.362;2023-07-16T02:08:33;23.70;49.70
6672;DHT22;3372;48.690;12.362;2023-07-16T02:10:58;23.50;49.80
6672;DHT22;3372;48.690;12.362;2023-07-16T02:13:25;23.50;48.50
6672;DHT22;3372;48.690;12.362;2023-07-16T02:15:51;23.50;50.60
6672;DHT22;3372;48.690;12.362;2023-07-16T02:18:16;23.40;50.60
6672;DHT22;3372;48.690;12.362;2023-07-16T02:20:43;23.20;51.70
6672;DHT22;3372;48.690;12.362;2023-07-16T02:23:09;23.20;51.80
6672;DHT22;3372;48.690;12.362;2023-07-16T02:25:34;23.20;52.30
6672;DHT22;3372;48.690;12.362;2023-07-16T02:28:00;23.20;51.30
6672;DHT22;3372;48.690;12.362;2023-07-16T02:30:25;23.30;52.20
6672;DHT22;3372;48.690;12.362;2023-07-16T02:32:51;23.30;52.20
6672;DHT22;3372;48.690;12.362;2023-07-16T02:35:17;23.30;51.20
6672;DHT22;3372;48.690;12.362;2023-07-16T02:37:42;23.30;51.30
6672;DHT22;3372;48.690;12.362;2023-07-16T02:40:08;23.30;51.90
6672;DHT22;3372;48.690;12.362;2023-07-16T02:42:34;23.40;48.60
6672;DHT22;3372;48.690;12.362;2023-07-16T02:45:00;23.30;50.40
6672;DHT22;3372;48.690;12.362;2023-07-16T02:47:25;23.30;50.20
6672;DHT22;3372;48.690;12.362;2023-07-16T02:49:51;23.30;50.30
6672;DHT22;3372;48.690;12.362;2023-07-16T02:52:17;23.40;49.90
6672;DHT22;3372;48.690;12.362;2023-07-16T02:54:43;23.40;49.30
6672;DHT22;3372;48.690;12.362;2023-07-16T02:57:08;23.50;49.20
6672;DHT22;3372;48.690;12.362;2023-07-16T02:59:34;23.50;47.80
6672;DHT22;3372;48.690;12.362;2023-07-16T03:01:59;23.50;46.70
6672;DHT22;3372;48.690;12.362;2023-07-16T03:04:25;23.40;50.30
6672;DHT22;3372;48.690;12.362;2023-07-16T03:06:51;23.40;49.00
6672;DHT22;3372;48.690;12.362;2023-07-16T03:09:16;23.50;47.90
6672;DHT22;3372;48.690;12.362;2023-07-16T03:11:42;23.40;48.30
6672;DHT22;3372;48.690;12.362;2023-07-16T03:14:07;23.50;48.30
6672;DHT22;3372;48.690;12.362;2023-07-16T03:16:33;23.50;47.80
6672;DHT22;3372;48.690;12.362;2023-07-16T03:18:58;23.50;47.40
6672;DHT22;3372;48.690;12.362;2023-07-16T03:21:24;23.50;47.20
6672;DHT22;3372;48.690;12.362;2023-07-16T03:23:50;23.50;49.00
6672;DHT22;3372;48.690;12.362;2023-07-16T03:26:15;23.30;48.40
6672;DHT22;3372;48.690;12.362;2023-07-16T03:28:41;23.40;49.90
6672;DHT22;3372;48.690;12.362;2023-07-16T03:31:06;23.50;47.90
6672;DHT22;3372;48.690;12.362;2023-07-16T03:33:32;23.50;47.30
6672;DHT22;3372;48.690;12.362;2023-07-16T03:35:57;23.50;48.00
6672;DHT22;3372;48.690;12.362;2023-07-16T03:38:23;23.50;47.60
6672;DHT22;3372;48.690;12.362;2023-07-16T03:40:49;23.60;46.20
6672;DHT22;3372;48.690;12.362;2023-07-16T03:43:16;23.60;45.90
6672;DHT22;3372;48.690;12.362;2023-07-16T03:45:42;23.60;46.60
6672;DHT22;3372;48.690;12.362;2023-07-16T03:48:07;23.60;48.10
6672;DHT22;3372;48.690;12.362;2023-07-16T03:50:34;23.60;47.20
6672;DHT22;3372;48.690;12.362;2023-07-16T03:52:59;23.70;46.30
6672;DHT22;3372;48.690;12.362;2023-07-16T03:55:25;23.50;51.60
6672;DHT22;3372;48.690;12.362;2023-07-16T03:57:51;23.50;48.80
6672;DHT22;3372;48.690;12.362;2023-07-16T04:00:17;23.50;49.40
6672;DHT22;3372;48.690;12.362;2023-07-16T04:02:42;23.40;50.00
6672;DHT22;3372;48.690;12.362;2023-07-16T04:05:08;23.50;47.90
6672;DHT22;3372;48.690;12.362;2023-07-16T04:07:34;23.50;48.00
6672;DHT22;3372;48.690;12.362;2023-07-16T04:09:59;23.60;50.60
6672;DHT22;3372;48.690;12.362;2023-07-16T04:12:25;23.60;47.90
6672;DHT22;3372;48.690;12.362;2023-07-16T04:14:57;23.50;48.10
6672;DHT22;3372;48.690;12.362;2023-07-16T04:17:24;23.60;49.10
6672;DHT22;3372;48.690;12.362;2023-07-16T04:19:49;23.60;49.20
6672;DHT22;3372;48.690;12.362;2023-07-16T04:22:15;23.40;48.60
6672;DHT22;3372;48.690;12.362;2023-07-16T04:24:41;23.50;48.00
6672;DHT22;3372;48.690;12.362;2023-07-16T04:27:06;23.60;47.40
6672;DHT22;3372;48.690;12.362;2023-07-16T04:29:32;23.40;48.10
6672;DHT22;3372;48.690;12.362;2023-07-16T04:31:58;23.20;51.60
6672;DHT22;3372;48.690;12.362;2023-07-16T04:34:23;23.30;49.80
6672;DHT22;3372;48.690;12.362;2023-07-16T04:36:49;23.50;47.70
6672;DHT22;3372;48.690;12.362;2023-07-16T04:39:14;23.50;47.20
6672;DHT22;3372;48.690;12.362;2023-07-16T04:41:40;23.50;47.90
6672;DHT22;3372;48.690;12.362;2023-07-16T04:44:05;23.60;46.50
6672;DHT22;3372;48.690;12.362;2023-07-16T04:46:31;23.60;47.40
6672;DHT22;3372;48.690;12.362;2023-07-16T04:48:57;23.60;48.60
6672;DHT22;3372;48.690;12.362;2023-07-16T04:51:22;23.60;47.60
6672;DHT22;3372;48.690;12.362;2023-07-16T04:53:48;23.60;47.10
6672;DHT22;3372;48.690;12.362;2023-07-16T04:56:15;23.50;47.40
6672;DHT22;3372;48.690;12.362;2023-07-16T04:58:41;23.60;47.80
6672;DHT22;3372;48.690;12.362;2023-07-16T05:01:11;23.60;46.50
6672;DHT22;3372;48.690;12.362;2023-07-16T05:03:37;23.60;47.70
6672;DHT22;3372;48.690;12.362;2023-07-16T05:06:04;23.60;48.00
6672;DHT22;3372;48.690;12.362;2023-07-16T05:08:29;23.70;47.00
6672;DHT22;3372;48.690;12.362;2023-07-16T05:10:55;23.70;47.20
6672;DHT22;3372;48.690;12.362;2023-07-16T05:13:21;23.70;46.50
6672;DHT22;3372;48.690;12.362;2023-07-16T05:15:46;23.70;46.60
6672;DHT22;3372;48.690;12.362;2023-07-16T05:18:12;23.70;47.50
6672;DHT22;3372;48.690;12.362;2023-07-16T05:20:37;23.70;48.30
6672;DHT22;3372;48.690;12.362;2023-07-16T05:23:03;23.70;46.70
6672;DHT22;3372;48.690;12.362;2023-07-16T05:25:29;23.80;47.70
6672;DHT22;3372;48.690;12.362;2023-07-16T05:27:55;23.80;47.40
6672;DHT22;3372;48.690;12.362;2023-07-16T05:30:20;24.00;46.40
6672;DHT22;3372;48.690;12.362;2023-07-16T05:32:46;24.10;46.50
6672;DHT22;3372;48.690;12.362;2023-07-16T05:35:11;24.20;45.50
6672;DHT22;3372;48.690;12.362;2023-07-16T05:37:37;24.40;46.90
6672;DHT22;3372;48.690;12.362;2023-07-16T05:40:03;24.70;44.70
6672;DHT22;3372;48.690;12.362;2023-07-16T05:42:29;24.40;43.90
6672;DHT22;3372;48.690;12.362;2023-07-16T05:44:55;24.50;43.70
6672;DHT22;3372;48.690;12.362;2023-07-16T05:47:20;24.40;42.20
6672;DHT22;3372;48.690;12.362;2023-07-16T05:49:46;24.20;41.90
6672;DHT22;3372;48.690;12.362;2023-07-16T05:52:12;24.00;41.40
6672;DHT22;3372;48.690;12.362;2023-07-16T05:54:37;24.00;40.80
6672;DHT22;3372;48.690;12.362;2023-07-16T05:57:03;24.10;40.20
6672;DHT22;3372;48.690;12.362;2023-07-16T05:59:28;24.10;40.10
6672;DHT22;3372;48.690;12.362;2023-07-16T06:01:54;24.10;39.60
6672;DHT22;3372;48.690;12.362;2023-07-16T06:04:20;24.00;39.20
6672;DHT22;3372;48.690;12.362;2023-07-16T06:06:46;23.70;40.40
6672;DHT22;3372;48.690;12.362;2023-07-16T06:09:11;23.70;39.60
6672;DHT22;3372;48.690;12.362;2023-07-16T06:11:37;23.80;40.20
6672;DHT22;3372;48.690;12.362;2023-07-16T06:14:02;23.90;39.70
6672;DHT22;3372;48.690;12.362;2023-07-16T06:16:28;23.60;40.40
6672;DHT22;3372;48.690;12.362;2023-07-16T06:18:53;23.50;41.10
6672;DHT22;3372;48.690;12.362;2023-07-16T06:21:19;23.40;41.60
6672;DHT22;3372;48.690;12.362;2023-07-16T06:23:44;23.30;40.50
6672;DHT22;3372;48.690;12.362;2023-07-16T06:26:10;23.20;38.80
6672;DHT22;3372;48.690;12.362;2023-07-16T06:28:36;23.40;39.50
6672;DHT22;3372;48.690;12.362;2023-07-16T06:31:01;23.30;42.40
6672;DHT22;3372;48.690;12.362;2023-07-16T06:33:27;23.10;42.00
6672;DHT22;3372;48.690;12.362;2023-07-16T06:35:53;23.10;40.90
6672;DHT22;3372;48.690;12.362;2023-07-16T06:38:19;23.30;38.90
6672;DHT22;3372;48.690;12.362;2023-07-16T06:40:51;23.10;38.30
6672;DHT22;3372;48.690;12.362;2023-07-16T06:43:17;23.00;38.60
6672;DHT22;3372;48.690;12.362;2023-07-16T06:45:43;23.10;37.80
6672;DHT22;3372;48.690;12.362;2023-07-16T06:48:09;23.20;37.40
6672;DHT22;3372;48.690;12.362;2023-07-16T06:50:34;23.30;37.50
6672;DHT22;3372;48.690;12.362;2023-07-16T06:53:00;23.40;36.20
6672;DHT22;3372;48.690;12.362;2023-07-16T06:55:26;23.40;36.50
6672;DHT22;3372;48.690;12.362;2023-07-16T06:57:51;23.50;36.70
6672;DHT22;3372;48.690;12.362;2023-07-16T07:00:17;23.60;36.20
6672;DHT22;3372;48.690;12.362;2023-07-16T07:02:43;23.80;36.50
6672;DHT22;3372;48.690;12.362;2023-07-16T07:05:08;23.80;35.50
6672;DHT22;3372;48.690;12.362;2023-07-16T07:07:34;23.80;34.80
6672;DHT22;3372;48.690;12.362;2023-07-16T07:10:00;23.90;34.60
6672;DHT22;3372;48.690;12.362;2023-07-16T07:12:25;23.70;35.10
6672;DHT22;3372;48.690;12.362;2023-07-16T07:14:51;23.70;35.40
6672;DHT22;3372;48.690;12.362;2023-07-16T07:17:17;23.70;35.10
6672;DHT22;3372;48.690;12.362;2023-07-16T07:19:43;23.80;37.00
6672;DHT22;3372;48.690;12.362;2023-07-16T07:22:09;23.70;36.10
6672;DHT22;3372;48.690;12.362;2023-07-16T07:24:35;23.90;36.10
6672;DHT22;3372;48.690;12.362;2023-07-16T07:27:00;24.10;36.10
6672;DHT22;3372;48.690;12.362;2023-07-16T07:29:26;24.10;35.30
6672;DHT22;3372;48.690;12.362;2023-07-16T07:31:52;24.10;34.80
6672;DHT22;3372;48.690;12.362;2023-07-16T07:34:18;24.20;34.00
6672;DHT22;3372;48.690;12.362;2023-07-16T07:36:43;24.30;33.00
6672;DHT22;3372;48.690;12.362;2023-07-16T07:39:09;24.30;33.50
6672;DHT22;3372;48.690;12.362;2023-07-16T07:41:34;24.30;32.20
6672;DHT22;3372;48.690;12.362;2023-07-16T07:44:00;24.10;33.60
6672;DHT22;3372;48.690;12.362;2023-07-16T07:46:26;24.20;32.40
6672;DHT22;3372;48.690;12.362;2023-07-16T07:48:51;24.40;32.40
6672;DHT22;3372;48.690;12.362;2023-07-16T07:51:17;24.40;30.00
6672;DHT22;3372;48.690;12.362;2023-07-16T07:53:42;24.40;29.70
6672;DHT22;3372;48.690;12.362;2023-07-16T07:56:08;24.30;29.10
6672;DHT22;3372;48.690;12.362;2023-07-16T07:58:33;24.30;29.10
6672;DHT22;3372;48.690;12.362;2023-07-16T08:01:08;24.40;29.80
6672;DHT22;3372;48.690;12.362;2023-07-16T08:03:34;24.50;29.50
6672;DHT22;3372;48.690;12.362;2023-07-16T08:06:00;24.80;29.80
6672;DHT22;3372;48.690;12.362;2023-07-16T08:08:26;24.80;28.70
6672;DHT22;3372;48.690;12.362;2023-07-16T08:10:53;25.30;27.60
6672;DHT22;3372;48.690;12.362;2023-07-16T08:13:19;25.80;27.40
6672;DHT22;3372;48.690;12.362;2023-07-16T08:15:45;26.10;25.50
6672;DHT22;3372;48.690;12.362;2023-07-16T08:18:10;26.20;25.00
6672;DHT22;3372;48.690;12.362;2023-07-16T08:20:36;26.00;24.70
6672;DHT22;3372;48.690;12.362;2023-07-16T08:23:02;26.00;24.60
6672;DHT22;3372;48.690;12.362;2023-07-16T08:25:28;25.80;24.60
6672;DHT22;3372;48.690;12.362;2023-07-16T08:27:54;25.90;24.50
6672;DHT22;3372;48.690;12.362;2023-07-16T08:30:19;26.10;24.70
6672;DHT22;3372;48.690;12.362;2023-07-16T08:32:45;26.00;24.10
6672;DHT22;3372;48.690;12.362;2023-07-16T08:35:10;26.00;23.80
6672;DHT22;3372;48.690;12.362;2023-07-16T08:37:45;26.00;23.50
6672;DHT22;3372;48.690;12.362;2023-07-16T08:40:11;25.80;24.50
6672;DHT22;3372;48.690;12.362;2023-07-16T08:42:40;25.80;24.10
6672;DHT22;3372;48.690;12.362;2023-07-16T08:45:10;25.80;24.60
6672;DHT22;3372;48.690;12.362;2023-07-16T08:47:37;25.90;24.60
6672;DHT22;3372;48.690;12.362;2023-07-16T08:50:03;25.70;24.50
6672;DHT22;3372;48.690;12.362;2023-07-16T08:52:29;25.80;24.50
6672;DHT22;3372;48.690;12.362;2023-07-16T08:54:55;25.50;25.20
6672;DHT22;3372;48.690;12.362;2023-07-16T08:57:21;25.50;25.90
6672;DHT22;3372;48.690;12.362;2023-07-16T08:59:51;25.80;25.50
6672;DHT22;3372;48.690;12.362;2023-07-16T09:02:20;25.50;25.10
6672;DHT22;3372;48.690;12.362;2023-07-16T09:04:46;25.50;25.80
6672;DHT22;3372;48.690;12.362;2023-07-16T09:07:12;25.70;25.70
6672;DHT22;3372;48.690;12.362;2023-07-16T09:09:38;25.70;25.10
6672;DHT22;3372;48.690;12.362;2023-07-16T09:12:04;25.90;25.50
6672;DHT22;3372;48.690;12.362;2023-07-16T09:14:29;26.20;25.90
6672;DHT22;3372;48.690;12.362;2023-07-16T09:16:55;26.50;24.90
6672;DHT22;3372;48.690;12.362;2023-07-16T09:19:21;26.40;23.40
6672;DHT22;3372;48.690;12.362;2023-07-16T09:21:50;26.60;23.40
6672;DHT22;3372;48.690;12.362;2023-07-16T09:24:18;27.20;23.20
6672;DHT22;3372;48.690;12.362;2023-07-16T09:26:54;27.60;21.90
6672;DHT22;3372;48.690;12.362;2023-07-16T09:29:21;27.40;23.40
6672;DHT22;3372;48.690;12.362;2023-07-16T09:31:54;27.80;21.00
6672;DHT22;3372;48.690;12.362;2023-07-16T09:34:20;28.00;20.40
6672;DHT22;3372;48.690;12.362;2023-07-16T09:36:47;28.10;20.50
6672;DHT22;3372;48.690;12.362;2023-07-16T09:39:16;28.10;19.30
6672;DHT22;3372;48.690;12.362;2023-07-16T09:41:42;28.10;18.90
6672;DHT22;3372;48.690;12.362;2023-07-16T09:44:09;28.40;21.80
6672;DHT22;3372;48.690;12.362;2023-07-16T09:46:35;28.50;18.00
6672;DHT22;3372;48.690;12.362;2023-07-16T09:49:00;28.50;18.80
6672;DHT22;3372;48.690;12.362;2023-07-16T09:51:26;28.70;17.10
6672;DHT22;3372;48.690;12.362;2023-07-16T09:53:53;28.50;18.40
6672;DHT22;3372;48.690;12.362;2023-07-16T09:56:20;28.40;18.40
6672;DHT22;3372;48.690;12.362;2023-07-16T09:58:46;28.40;19.70
6672;DHT22;3372;48.690;12.362;2023-07-16T10:01:12;28.70;18.50
6672;DHT22;3372;48.690;12.362;2023-07-16T10:03:49;28.90;17.30
6672;DHT22;3372;48.690;12.362;2023-07-16T10:06:15;28.90;16.40
6672;DHT22;3372;48.690;12.362;2023-07-16T10:08:40;28.90;18.10
6672;DHT22;3372;48.690;12.362;2023-07-16T10:11:17;28.40;17.10
6672;DHT22;3372;48.690;12.362;2023-07-16T10:13:43;28.00;17.70
6672;DHT22;3372;48.690;12.362;2023-07-16T10:16:20;27.90;18.30
6672;DHT22;3372;48.690;12.362;2023-07-16T10:18:52;28.30;17.90
6672;DHT22;3372;48.690;12.362;2023-07-16T10:21:25;28.10;16.60
6672;DHT22;3372;48.690;12.362;2023-07-16T10:23:58;28.30;16.10
6672;DHT22;3372;48.690;12.362;2023-07-16T10:26:28;28.00;17.20
6672;DHT22;3372;48.690;12.362;2023-07-16T10:28:54;28.20;16.60
6672;DHT22;3372;48.690;12.362;2023-07-16T10:31:24;28.50;16.60
6672;DHT22;3372;48.690;12.362;2023-07-16T10:34:04;28.40;16.10
6672;DHT22;3372;48.690;12.362;2023-07-16T10:36:30;28.20;16.20
6672;DHT22;3372;48.690;12.362;2023-07-16T10:39:05;28.00;17.60
6672;DHT22;3372;48.690;12.362;2023-07-16T10:41:31;28.10;16.90
6672;DHT22;3372;48.690;12.362;2023-07-16T10:43:58;28.60;16.20
6672;DHT22;3372;48.690;12.362;2023-07-16T10:46:24;28.90;15.60
6672;DHT22;3372;48.690;12.362;2023-07-16T10:48:49;29.00;15.60
6672;DHT22;3372;48.690;12.362;2023-07-16T10:51:15;29.30;16.60
6672;DHT22;3372;48.690;12.362;2023-07-16T10:53:44;29.20;15.30
6672;DHT22;3372;48.690;12.362;2023-07-16T10:56:10;29.40;15.50
6672;DHT22;3372;48.690;12.362;2023-07-16T10:58:37;29.00;12.90
6672;DHT22;3372;48.690;12.362;2023-07-16T11:01:03;28.70;15.00
6672;DHT22;3372;48.690;12.362;2023-07-16T11:03:28;28.20;15.70
6672;DHT22;3372;48.690;12.362;2023-07-16T11:05:54;28.20;17.20
6672;DHT22;3372;48.690;12.362;2023-07-16T11:08:23;27.80;19.30
6672;DHT22;3372;48.690;12.362;2023-07-16T11:10:56;28.10;19.70
6672;DHT22;3372;48.690;12.362;2023-07-16T11:13:30;28.30;19.40
6672;DHT22;3372;48.690;12.362;2023-07-16T11:15:56;28.40;19.30
6672;DHT22;3372;48.690;12.362;2023-07-16T11:18:23;28.30;19.00
6672;DHT22;3372;48.690;12.362;2023-07-16T11:20:53;28.30;19.00
6672;DHT22;3372;48.690;12.362;2023-07-16T11:23:18;28.40;19.30
6672;DHT22;3372;48.690;12.362;2023-07-16T11:25:51;28.50;18.80
6672;DHT22;3372;48.690;12.362;2023-07-16T11:28:17;28.30;18.50
6672;DHT22;3372;48.690;12.362;2023-07-16T11:30:43;28.10;19.10
6672;DHT22;3372;48.690;12.362;2023-07-16T11:33:12;28.10;19.70
6672;DHT22;3372;48.690;12.362;2023-07-16T11:35:38;28.20;20.50
6672;DHT22;3372;48.690;12.362;2023-07-16T11:38:05;28.30;20.20
6672;DHT22;3372;48.690;12.362;2023-07-16T11:40:34;28.30;20.00
6672;DHT22;3372;48.690;12.362;2023-07-16T11:43:10;28.10;19.20
6672;DHT22;3372;48.690;12.362;2023-07-16T11:45:36;28.20;20.40
6672;DHT22;3372;48.690;12.362;2023-07-16T11:48:02;28.30;20.30
6672;DHT22;3372;48.690;12.362;2023-07-16T11:50:28;28.40;20.10
6672;DHT22;3372;48.690;12.362;2023-07-16T11:53:00;28.30;20.10
6672;DHT22;3372;48.690;12.362;2023-07-16T11:55:26;28.30;19.10
6672;DHT22;3372;48.690;12.362;2023-07-16T11:57:52;28.30;19.70
6672;DHT22;3372;48.690;12.362;2023-07-16T12:00:18;28.20;19.40
6672;DHT22;3372;48.690;12.362;2023-07-16T12:02:44;28.20;19.00
6672;DHT22;3372;48.690;12.362;2023-07-16T12:05:17;28.20;19.00
6672;DHT22;3372;48.690;12.362;2023-07-16T12:07:43;28.20;18.50
6672;DHT22;3372;48.690;12.362;2023-07-16T12:10:08;28.10;18.60
6672;DHT22;3372;48.690;12.362;2023-07-16T12:12:34;28.20;18.60
6672;DHT22;3372;48.690;12.362;2023-07-16T12:15:04;28.40;18.20
6672;DHT22;3372;48.690;12.362;2023-07-16T12:17:29;28.00;18.80
6672;DHT22;3372;48.690;12.362;2023-07-16T12:19:55;28.30;19.20
6672;DHT22;3372;48.690;12.362;2023-07-16T12:22:21;28.40;17.90
6672;DHT22;3372;48.690;12.362;2023-07-16T12:24:47;28.40;17.70
6672;DHT22;3372;48.690;12.362;2023-07-16T12:27:13;28.80;16.50
6672;DHT22;3372;48.690;12.362;2023-07-16T12:29:39;28.90;17.50
6672;DHT22;3372;48.690;12.362;2023-07-16T12:32:05;28.90;17.30
6672;DHT22;3372;48.690;12.362;2023-07-16T12:34:30;28.80;17.20
6672;DHT22;3372;48.690;12.362;2023-07-16T12:36:56;28.70;18.20
6672;DHT22;3372;48.690;12.362;2023-07-16T12:39:22;28.90;18.20
6672;DHT22;3372;48.690;12.362;2023-07-16T12:41:48;28.70;18.10
6672;DHT22;3372;48.690;12.362;2023-07-16T12:44:13;28.70;18.30
6672;DHT22;3372;48.690;12.362;2023-07-16T12:46:39;28.70;18.40
6672;DHT22;3372;48.690;12.362;2023-07-16T12:49:04;28.70;18.60
6672;DHT22;3372;48.690;12.362;2023-07-16T12:51:30;28.60;19.40
6672;DHT22;3372;48.690;12.362;2023-07-16T12:53:55;28.80;19.60
6672;DHT22;3372;48.690;12.362;2023-07-16T12:56:21;28.80;19.80
6672;DHT22;3372;48.690;12.362;2023-07-16T12:58:48;28.60;19.20
6672;DHT22;3372;48.690;12.362;2023-07-16T13:01:13;28.50;19.00
6672;DHT22;3372;48.690;12.362;2023-07-16T13:03:39;28.30;20.20
6672;DHT22;3372;48.690;12.362;2023-07-16T13:06:04;28.30;20.60
6672;DHT22;3372;48.690;12.362;2023-07-16T13:08:30;28.50;20.50
6672;DHT22;3372;48.690;12.362;2023-07-16T13:10:57;28.60;20.00
6672;DHT22;3372;48.690;12.362;2023-07-16T13:13:23;28.60;19.70
6672;DHT22;3372;48.690;12.362;2023-07-16T13:15:49;28.60;19.50
6672;DHT22;3372;48.690;12.362;2023-07-16T13:18:15;28.90;20.00
6672;DHT22;3372;48.690;12.362;2023-07-16T13:20:40;29.00;20.60
6672;DHT22;3372;48.690;12.362;2023-07-16T13:23:06;28.90;20.40
6672;DHT22;3372;48.690;12.362;2023-07-16T13:25:33;28.70;20.70
6672;DHT22;3372;48.690;12.362;2023-07-16T13:27:59;28.70;20.70
6672;DHT22;3372;48.690;12.362;2023-07-16T13:30:25;28.40;20.60
6672;DHT22;3372;48.690;12.362;2023-07-16T13:32:51;28.30;21.00
6672;DHT22;3372;48.690;12.362;2023-07-16T13:35:20;28.60;20.90
6672;DHT22;3372;48.690;12.362;2023-07-16T13:37:46;28.70;20.50
6672;DHT22;3372;48.690;12.362;2023-07-16T13:40:12;28.80;20.50
6672;DHT22;3372;48.690;12.362;2023-07-16T13:42:37;28.90;20.10
6672;DHT22;3372;48.690;12.362;2023-07-16T13:45:04;28.90;20.80
6672;DHT22;3372;48.690;12.362;2023-07-16T13:47:30;28.90;20.60
6672;DHT22;3372;48.690;12.362;2023-07-16T13:49:56;28.90;21.00
6672;DHT22;3372;48.690;12.362;2023-07-16T13:52:22;28.90;20.30
6672;DHT22;3372;48.690;12.362;2023-07-16T13:54:47;28.80;20.00
6672;DHT22;3372;48.690;12.362;2023-07-16T13:57:13;28.50;20.50
6672;DHT22;3372;48.690;12.362;2023-07-16T13:59:38;28.60;20.90
6672;DHT22;3372;48.690;12.362;2023-07-16T14:02:04;28.70;20.80
6672;DHT22;3372;48.690;12.362;2023-07-16T14:04:30;28.90;21.10
6672;DHT22;3372;48.690;12.362;2023-07-16T14:06:55;29.00;20.50
6672;DHT22;3372;48.690;12.362;2023-07-16T14:09:22;29.00;20.00
6672;DHT22;3372;48.690;12.362;2023-07-16T14:11:48;29.00;20.10
6672;DHT22;3372;48.690;12.362;2023-07-16T14:14:14;29.00;20.30
6672;DHT22;3372;48.690;12.362;2023-07-16T14:16:40;29.00;20.20
6672;DHT22;3372;48.690;12.362;2023-07-16T14:19:06;28.90;20.20
6672;DHT22;3372;48.690;12.362;2023-07-16T14:21:31;28.90;20.60
6672;DHT22;3372;48.690;12.362;2023-07-16T14:23:57;29.10;20.40
6672;DHT22;3372;48.690;12.362;2023-07-16T14:26:23;28.90;20.00
6672;DHT22;3372;48.690;12.362;2023-07-16T14:28:48;29.00;20.30
6672;DHT22;3372;48.690;12.362;2023-07-16T14:31:14;29.10;19.90
6672;DHT22;3372;48.690;12.362;2023-07-16T14:33:39;29.10;19.60
6672;DHT22;3372;48.690;12.362;2023-07-16T14:36:05;29.10;19.80
6672;DHT22;3372;48.690;12.362;2023-07-16T14:38:31;29.10;20.10
6672;DHT22;3372;48.690;12.362;2023-07-16T14:40:56;29.10;20.20
6672;DHT22;3372;48.690;12.362;2023-07-16T14:43:22;29.20;19.90
6672;DHT22;3372;48.690;12.362;2023-07-16T14:45:47;29.20;19.60
6672;DHT22;3372;48.690;12.362;2023-07-16T14:48:13;29.20;19.50
6672;DHT22;3372;48.690;12.362;2023-07-16T14:50:39;29.20;19.40
6672;DHT22;3372;48.690;12.362;2023-07-16T14:53:05;29.20;19.70
6672;DHT22;3372;48.690;12.362;2023-07-16T14:55:30;29.20;19.40
6672;DHT22;3372;48.690;12.362;2023-07-16T14:57:56;29.30;19.70
6672;DHT22;3372;48.690;12.362;2023-07-16T15:00:22;29.40;19.00
6672;DHT22;3372;48.690;12.362;2023-07-16T15:02:47;29.60;19.00
6672;DHT22;3372;48.690;12.362;2023-07-16T15:05:13;29.70;19.00
6672;DHT22;3372;48.690;12.362;2023-07-16T15:07:39;29.70;18.40
6672;DHT22;3372;48.690;12.362;2023-07-16T15:10:05;29.80;17.80
6672;DHT22;3372;48.690;12.362;2023-07-16T15:12:31;29.80;18.10
6672;DHT22;3372;48.690;12.362;2023-07-16T15:14:57;29.80;18.00
6672;DHT22;3372;48.690;12.362;2023-07-16T15:17:22;29.70;17.30
6672;DHT22;3372;48.690;12.362;2023-07-16T15:19:49;29.80;18.10
6672;DHT22;3372;48.690;12.362;2023-07-16T15:22:15;29.50;17.70
6672;DHT22;3372;48.690;12.362;2023-07-16T15:24:46;29.30;18.00
6672;DHT22;3372;48.690;12.362;2023-07-16T15:27:12;29.10;18.00
6672;DHT22;3372;48.690;12.362;2023-07-16T15:29:38;28.90;18.50
6672;DHT22;3372;48.690;12.362;2023-07-16T15:32:05;28.90;18.80
6672;DHT22;3372;48.690;12.362;2023-07-16T15:34:30;28.80;18.80
6672;DHT22;3372;48.690;12.362;2023-07-16T15:36:56;28.90;19.10
6672;DHT22;3372;48.690;12.362;2023-07-16T15:39:22;28.90;19.00
6672;DHT22;3372;48.690;12.362;2023-07-16T15:41:47;29.10;19.70
6672;DHT22;3372;48.690;12.362;2023-07-16T15:44:13;29.30;19.40